sensor_id;sensor_type;location;lat;lon;timestamp;P1;durP1;ratioP1;P2;durP2;ratioP2
31526;SDS011;18136;42.236;-73.040;2023-04-25T00:01:54;2.75;;;1.92;;
31526;SDS011;18136;42.236;-73.040;2023-04-25T00:04:21;2.65;;;1.80;;
31526;SDS011;18136;42.236;-73.040;2023-04-25T00:06:48;4.65;;;1.85;;
31526;SDS011;18136;42.236;-73.040;2023-04-25T00:09:14;2.38;;;1.80;;
31526;SDS011;18136;42.236;-73.040;2023-04-25T00:11:40;2.83;;;1.80;;
31526;SDS011;18136;42.236;-73.040;2023-04-25T00:14:06;2.75;;;1.80;;
31526;SDS011;18136;42.236;-73.040;2023-04-25T00:16:32;3.88;;;2.05;;
31526;SDS011;18136;42.236;-73.040;2023-04-25T00:19:00;2.83;;;1.70;;
31526;SDS011;18136;42.236;-73.040;2023-04-25T00:21:27;2.00;;;1.80;;
31526;SDS011;18136;42.236;-73.040;2023-04-25T00:23:56;3.38;;;1.90;;
31526;SDS011;18136;42.236;-73.040;2023-04-25T00:26:22;2.10;;;1.90;;
31526;SDS011;18136;42.236;-73.040;2023-04-25T00:28:48;2.65;;;1.75;;
31526;SDS011;18136;42.236;-73.040;2023-04-25T00:31:14;2.17;;;1.98;;
31526;SDS011;18136;42.236;-73.040;2023-04-25T00:33:40;2.90;;;2.20;;
31526;SDS011;18136;42.236;-73.040;2023-04-25T00:39:07;2.95;;;2.70;;
31526;SDS011;18136;42.236;-73.040;2023-04-25T00:41:33;3.35;;;3.05;;
31526;SDS011;18136;42.236;-73.040;2023-04-25T00:44:00;2.53;;;2.30;;
31526;SDS011;18136;42.236;-73.040;2023-04-25T00:46:28;2.45;;;2.00;;
31526;SDS011;18136;42.236;-73.040;2023-04-25T00:48:54;2.40;;;2.00;;
31526;SDS011;18136;42.236;-73.040;2023-04-25T00:51:20;2.42;;;2.22;;
31526;SDS011;18136;42.236;-73.040;2023-04-25T00:53:48;2.58;;;2.30;;
31526;SDS011;18136;42.236;-73.040;2023-04-25T00:56:15;3.00;;;1.90;;
31526;SDS011;18136;42.236;-73.040;2023-04-25T00:58:42;2.33;;;2.13;;
31526;SDS011;18136;42.236;-73.040;2023-04-25T01:01:08;2.28;;;2.08;;
31526;SDS011;18136;42.236;-73.040;2023-04-25T01:03:37;2.97;;;2.60;;
31526;SDS011;18136;42.236;-73.040;2023-04-25T01:06:08;2.67;;;2.03;;
31526;SDS011;18136;42.236;-73.040;2023-04-25T01:08:35;2.60;;;2.10;;
31526;SDS011;18136;42.236;-73.040;2023-04-25T01:11:03;2.63;;;2.28;;
31526;SDS011;18136;42.236;-73.040;2023-04-25T01:13:30;3.25;;;2.30;;
31526;SDS011;18136;42.236;-73.040;2023-04-25T01:15:57;3.45;;;2.35;;
31526;SDS011;18136;42.236;-73.040;2023-04-25T01:18:24;3.83;;;2.45;;
31526;SDS011;18136;42.236;-73.040;2023-04-25T01:20:51;2.40;;;2.20;;
31526;SDS011;18136;42.236;-73.040;2023-04-25T01:23:18;2.22;;;2.03;;
31526;SDS011;18136;42.236;-73.040;2023-04-25T01:25:47;3.20;;;2.42;;
31526;SDS011;18136;42.236;-73.040;2023-04-25T01:28:14;3.38;;;2.70;;
31526;SDS011;18136;42.236;-73.040;2023-04-25T01:30:40;2.67;;;2.20;;
31526;SDS011;18136;42.236;-73.040;2023-04-25T01:33:07;2.75;;;2.28;;
31526;SDS011;18136;42.236;-73.040;2023-04-25T01:35:34;3.05;;;2.28;;
31526;SDS011;18136;42.236;-73.040;2023-04-25T01:38:00;2.80;;;2.60;;
31526;SDS011;18136;42.236;-73.040;2023-04-25T01:40:26;2.70;;;2.50;;
31526;SDS011;18136;42.236;-73.040;2023-04-25T01:42:53;2.42;;;2.22;;
31526;SDS011;18136;42.236;-73.040;2023-04-25T01:45:19;2.60;;;2.40;;
31526;SDS011;18136;42.236;-73.040;2023-04-25T01:47:46;4.53;;;2.53;;
31526;SDS011;18136;42.236;-73.040;2023-04-25T01:50:14;2.50;;;2.30;;
31526;SDS011;18136;42.236;-73.040;2023-04-25T01:52:43;2.50;;;2.30;;
31526;SDS011;18136;42.236;-73.040;2023-04-25T01:55:09;2.55;;;2.35;;
31526;SDS011;18136;42.236;-73.040;2023-04-25T01:57:35;2.67;;;2.38;;
31526;SDS011;18136;42.236;-73.040;2023-04-25T02:00:02;2.60;;;2.40;;
31526;SDS011;18136;42.236;-73.040;2023-04-25T02:02:31;2.40;;;2.20;;
31526;SDS011;18136;42.236;-73.040;2023-04-25T02:04:57;2.65;;;2.20;;
31526;SDS011;18136;42.236;-73.040;2023-04-25T02:07:23;2.67;;;2.03;;
31526;SDS011;18136;42.236;-73.040;2023-04-25T02:09:51;4.25;;;2.80;;
31526;SDS011;18136;42.236;-73.040;2023-04-25T02:12:17;2.53;;;2.33;;
31526;SDS011;18136;42.236;-73.040;2023-04-25T02:14:43;2.60;;;2.40;;
31526;SDS011;18136;42.236;-73.040;2023-04-25T02:17:09;3.05;;;2.75;;
31526;SDS011;18136;42.236;-73.040;2023-04-25T02:19:37;2.42;;;2.22;;
31526;SDS011;18136;42.236;-73.040;2023-04-25T02:22:03;2.78;;;2.58;;
31526;SDS011;18136;42.236;-73.040;2023-04-25T02:24:30;2.40;;;2.20;;
31526;SDS011;18136;42.236;-73.040;2023-04-25T02:26:57;6.90;;;2.60;;
31526;SDS011;18136;42.236;-73.040;2023-04-25T02:29:23;5.30;;;2.95;;
31526;SDS011;18136;42.236;-73.040;2023-04-25T02:31:49;3.65;;;2.95;;
31526;SDS011;18136;42.236;-73.040;2023-04-25T02:34:15;2.75;;;2.53;;
31526;SDS011;18136;42.236;-73.040;2023-04-25T02:36:41;2.97;;;2.67;;
31526;SDS011;18136;42.236;-73.040;2023-04-25T02:39:07;3.10;;;2.70;;
31526;SDS011;18136;42.236;-73.040;2023-04-25T02:41:33;2.65;;;2.45;;
31526;SDS011;18136;42.236;-73.040;2023-04-25T02:43:59;3.00;;;2.70;;
31526;SDS011;18136;42.236;-73.040;2023-04-25T02:46:25;3.65;;;2.85;;
31526;SDS011;18136;42.236;-73.040;2023-04-25T02:48:51;3.15;;;2.83;;
31526;SDS011;18136;42.236;-73.040;2023-04-25T02:51:17;2.92;;;2.60;;
31526;SDS011;18136;42.236;-73.040;2023-04-25T02:53:43;3.08;;;2.67;;
31526;SDS011;18136;42.236;-73.040;2023-04-25T02:56:10;3.58;;;2.25;;
31526;SDS011;18136;42.236;-73.040;2023-04-25T02:58:36;2.40;;;2.20;;
31526;SDS011;18136;42.236;-73.040;2023-04-25T03:01:02;2.35;;;2.17;;
31526;SDS011;18136;42.236;-73.040;2023-04-25T03:03:28;2.78;;;2.25;;
31526;SDS011;18136;42.236;-73.040;2023-04-25T03:05:54;2.33;;;2.10;;
31526;SDS011;18136;42.236;-73.040;2023-04-25T03:08:20;1.95;;;1.75;;
31526;SDS011;18136;42.236;-73.040;2023-04-25T03:10:46;4.43;;;2.58;;
31526;SDS011;18136;42.236;-73.040;2023-04-25T03:13:13;2.95;;;2.20;;
31526;SDS011;18136;42.236;-73.040;2023-04-25T03:15:39;2.58;;;2.38;;
31526;SDS011;18136;42.236;-73.040;2023-04-25T03:18:05;2.50;;;2.30;;
31526;SDS011;18136;42.236;-73.040;2023-04-25T03:20:31;3.08;;;2.55;;
31526;SDS011;18136;42.236;-73.040;2023-04-25T03:22:57;2.75;;;2.47;;
31526;SDS011;18136;42.236;-73.040;2023-04-25T03:25:23;2.42;;;2.22;;
31526;SDS011;18136;42.236;-73.040;2023-04-25T03:27:49;2.47;;;2.28;;
31526;SDS011;18136;42.236;-73.040;2023-04-25T03:30:15;2.15;;;2.00;;
31526;SDS011;18136;42.236;-73.040;2023-04-25T03:32:41;2.42;;;2.17;;
31526;SDS011;18136;42.236;-73.040;2023-04-25T03:35:07;2.22;;;2.10;;
31526;SDS011;18136;42.236;-73.040;2023-04-25T03:37:33;2.10;;;2.00;;
31526;SDS011;18136;42.236;-73.040;2023-04-25T03:40:00;4.45;;;2.50;;
31526;SDS011;18136;42.236;-73.040;2023-04-25T03:42:26;2.30;;;2.10;;
31526;SDS011;18136;42.236;-73.040;2023-04-25T03:44:52;2.25;;;2.05;;
31526;SDS011;18136;42.236;-73.040;2023-04-25T03:47:18;2.95;;;2.22;;
31526;SDS011;18136;42.236;-73.040;2023-04-25T03:49:44;2.08;;;1.90;;
31526;SDS011;18136;42.236;-73.040;2023-04-25T03:52:10;2.83;;;2.22;;
31526;SDS011;18136;42.236;-73.040;2023-04-25T03:54:36;2.13;;;2.00;;
31526;SDS011;18136;42.236;-73.040;2023-04-25T03:57:02;2.78;;;2.42;;
31526;SDS011;18136;42.236;-73.040;2023-04-25T03:59:28;3.10;;;2.80;;
31526;SDS011;18136;42.236;-73.040;2023-04-25T04:01:54;2.45;;;2.25;;
31526;SDS011;18136;42.236;-73.040;2023-04-25T04:04:20;2.63;;;2.42;;
31526;SDS011;18136;42.236;-73.040;2023-04-25T04:06:46;2.80;;;2.50;;
31526;SDS011;18136;42.236;-73.040;2023-04-25T04:09:12;2.95;;;2.65;;
31526;SDS011;18136;42.236;-73.040;2023-04-25T04:11:38;2.80;;;2.60;;
31526;SDS011;18136;42.236;-73.040;2023-04-25T04:14:05;2.70;;;2.50;;
31526;SDS011;18136;42.236;-73.040;2023-04-25T04:16:32;2.50;;;2.30;;
31526;SDS011;18136;42.236;-73.040;2023-04-25T04:18:58;3.22;;;2.92;;
31526;SDS011;18136;42.236;-73.040;2023-04-25T04:21:24;2.47;;;2.28;;
31526;SDS011;18136;42.236;-73.040;2023-04-25T04:23:52;2.55;;;2.35;;
31526;SDS011;18136;42.236;-73.040;2023-04-25T04:26:19;2.75;;;2.28;;
31526;SDS011;18136;42.236;-73.040;2023-04-25T04:28:48;3.80;;;2.63;;
31526;SDS011;18136;42.236;-73.040;2023-04-25T04:31:19;3.15;;;2.55;;
31526;SDS011;18136;42.236;-73.040;2023-04-25T04:33:46;3.20;;;3.00;;
31526;SDS011;18136;42.236;-73.040;2023-04-25T04:36:13;3.17;;;2.85;;
31526;SDS011;18136;42.236;-73.040;2023-04-25T04:38:39;2.60;;;2.40;;
31526;SDS011;18136;42.236;-73.040;2023-04-25T04:41:08;3.65;;;2.75;;
31526;SDS011;18136;42.236;-73.040;2023-04-25T04:43:34;2.80;;;2.60;;
31526;SDS011;18136;42.236;-73.040;2023-04-25T04:46:00;3.53;;;2.45;;
31526;SDS011;18136;42.236;-73.040;2023-04-25T04:48:26;2.88;;;2.67;;
31526;SDS011;18136;42.236;-73.040;2023-04-25T04:50:53;3.05;;;2.58;;
31526;SDS011;18136;42.236;-73.040;2023-04-25T04:53:19;4.15;;;2.40;;
31526;SDS011;18136;42.236;-73.040;2023-04-25T04:55:45;2.50;;;2.30;;
31526;SDS011;18136;42.236;-73.040;2023-04-25T04:58:11;4.53;;;2.75;;
31526;SDS011;18136;42.236;-73.040;2023-04-25T05:00:37;2.47;;;2.28;;
31526;SDS011;18136;42.236;-73.040;2023-04-25T05:03:03;2.80;;;2.45;;
31526;SDS011;18136;42.236;-73.040;2023-04-25T05:05:30;2.55;;;2.35;;
31526;SDS011;18136;42.236;-73.040;2023-04-25T05:07:56;2.42;;;2.22;;
31526;SDS011;18136;42.236;-73.040;2023-04-25T05:10:23;3.90;;;2.35;;
31526;SDS011;18136;42.236;-73.040;2023-04-25T05:12:49;2.13;;;1.95;;
31526;SDS011;18136;42.236;-73.040;2023-04-25T05:15:15;4.35;;;2.50;;
31526;SDS011;18136;42.236;-73.040;2023-04-25T05:17:41;2.25;;;2.05;;
31526;SDS011;18136;42.236;-73.040;2023-04-25T05:20:07;3.35;;;2.88;;
31526;SDS011;18136;42.236;-73.040;2023-04-25T05:22:36;2.67;;;2.47;;
31526;SDS011;18136;42.236;-73.040;2023-04-25T05:25:03;3.03;;;2.78;;
31526;SDS011;18136;42.236;-73.040;2023-04-25T05:27:29;3.22;;;2.90;;
31526;SDS011;18136;42.236;-73.040;2023-04-25T05:29:55;2.80;;;2.50;;
31526;SDS011;18136;42.236;-73.040;2023-04-25T05:32:21;3.00;;;2.40;;
31526;SDS011;18136;42.236;-73.040;2023-04-25T05:34:47;2.88;;;2.58;;
31526;SDS011;18136;42.236;-73.040;2023-04-25T05:37:13;2.92;;;2.63;;
31526;SDS011;18136;42.236;-73.040;2023-04-25T05:39:39;3.88;;;2.60;;
31526;SDS011;18136;42.236;-73.040;2023-04-25T05:42:05;2.45;;;2.25;;
31526;SDS011;18136;42.236;-73.040;2023-04-25T05:44:31;2.50;;;2.30;;
31526;SDS011;18136;42.236;-73.040;2023-04-25T05:46:57;2.30;;;2.10;;
31526;SDS011;18136;42.236;-73.040;2023-04-25T05:49:24;4.03;;;2.78;;
31526;SDS011;18136;42.236;-73.040;2023-04-25T05:51:50;2.80;;;2.60;;
31526;SDS011;18136;42.236;-73.040;2023-04-25T05:54:16;8.95;;;2.50;;
31526;SDS011;18136;42.236;-73.040;2023-04-25T05:56:42;2.88;;;2.53;;
31526;SDS011;18136;42.236;-73.040;2023-04-25T05:59:08;2.40;;;2.20;;
31526;SDS011;18136;42.236;-73.040;2023-04-25T06:01:34;2.72;;;2.45;;
31526;SDS011;18136;42.236;-73.040;2023-04-25T06:06:28;2.35;;;2.15;;
31526;SDS011;18136;42.236;-73.040;2023-04-25T06:08:55;2.15;;;2.05;;
31526;SDS011;18136;42.236;-73.040;2023-04-25T06:11:21;2.60;;;2.40;;
31526;SDS011;18136;42.236;-73.040;2023-04-25T06:13:47;2.40;;;2.20;;
31526;SDS011;18136;42.236;-73.040;2023-04-25T06:16:13;4.07;;;2.55;;
31526;SDS011;18136;42.236;-73.040;2023-04-25T06:18:39;2.97;;;2.67;;
31526;SDS011;18136;42.236;-73.040;2023-04-25T06:21:05;3.40;;;2.20;;
31526;SDS011;18136;42.236;-73.040;2023-04-25T06:23:32;2.45;;;2.28;;
31526;SDS011;18136;42.236;-73.040;2023-04-25T06:25:58;2.72;;;2.42;;
31526;SDS011;18136;42.236;-73.040;2023-04-25T06:28:24;3.92;;;2.40;;
31526;SDS011;18136;42.236;-73.040;2023-04-25T06:30:50;2.78;;;2.20;;
31526;SDS011;18136;42.236;-73.040;2023-04-25T06:33:16;3.80;;;2.53;;
31526;SDS011;18136;42.236;-73.040;2023-04-25T06:35:42;2.65;;;2.45;;
31526;SDS011;18136;42.236;-73.040;2023-04-25T06:38:08;2.50;;;2.10;;
31526;SDS011;18136;42.236;-73.040;2023-04-25T06:40:34;2.35;;;2.17;;
31526;SDS011;18136;42.236;-73.040;2023-04-25T06:43:01;2.60;;;2.40;;
31526;SDS011;18136;42.236;-73.040;2023-04-25T06:45:27;4.25;;;2.47;;
31526;SDS011;18136;42.236;-73.040;2023-04-25T06:47:53;2.42;;;2.22;;
31526;SDS011;18136;42.236;-73.040;2023-04-25T06:50:19;6.10;;;2.92;;
31526;SDS011;18136;42.236;-73.040;2023-04-25T06:52:45;2.63;;;2.42;;
31526;SDS011;18136;42.236;-73.040;2023-04-25T06:55:11;2.50;;;2.30;;
31526;SDS011;18136;42.236;-73.040;2023-04-25T06:57:41;4.35;;;2.83;;
31526;SDS011;18136;42.236;-73.040;2023-04-25T07:00:07;2.50;;;2.30;;
31526;SDS011;18136;42.236;-73.040;2023-04-25T07:02:34;2.13;;;2.00;;
31526;SDS011;18136;42.236;-73.040;2023-04-25T07:05:01;3.05;;;2.45;;
31526;SDS011;18136;42.236;-73.040;2023-04-25T07:07:29;2.78;;;2.47;;
31526;SDS011;18136;42.236;-73.040;2023-04-25T07:09:56;4.82;;;3.33;;
31526;SDS011;18136;42.236;-73.040;2023-04-25T07:12:22;3.83;;;3.08;;
31526;SDS011;18136;42.236;-73.040;2023-04-25T07:14:48;4.97;;;3.10;;
31526;SDS011;18136;42.236;-73.040;2023-04-25T07:17:14;4.60;;;3.15;;
31526;SDS011;18136;42.236;-73.040;2023-04-25T07:19:40;6.40;;;3.33;;
31526;SDS011;18136;42.236;-73.040;2023-04-25T07:22:07;3.97;;;3.20;;
31526;SDS011;18136;42.236;-73.040;2023-04-25T07:24:33;3.88;;;3.15;;
31526;SDS011;18136;42.236;-73.040;2023-04-25T07:26:59;2.97;;;2.67;;
31526;SDS011;18136;42.236;-73.040;2023-04-25T07:29:28;3.90;;;3.33;;
31526;SDS011;18136;42.236;-73.040;2023-04-25T07:31:55;4.28;;;3.40;;
31526;SDS011;18136;42.236;-73.040;2023-04-25T07:34:21;3.47;;;2.97;;
31526;SDS011;18136;42.236;-73.040;2023-04-25T07:36:48;3.38;;;3.08;;
31526;SDS011;18136;42.236;-73.040;2023-04-25T07:39:15;3.10;;;2.90;;
31526;SDS011;18136;42.236;-73.040;2023-04-25T07:41:43;2.90;;;2.70;;
31526;SDS011;18136;42.236;-73.040;2023-04-25T07:44:09;3.72;;;3.05;;
31526;SDS011;18136;42.236;-73.040;2023-04-25T07:46:35;4.05;;;2.83;;
31526;SDS011;18136;42.236;-73.040;2023-04-25T07:49:02;3.17;;;2.85;;
31526;SDS011;18136;42.236;-73.040;2023-04-25T07:51:28;3.30;;;2.80;;
31526;SDS011;18136;42.236;-73.040;2023-04-25T07:53:54;3.38;;;2.70;;
31526;SDS011;18136;42.236;-73.040;2023-04-25T07:56:20;3.22;;;2.92;;
31526;SDS011;18136;42.236;-73.040;2023-04-25T07:58:46;3.88;;;2.78;;
31526;SDS011;18136;42.236;-73.040;2023-04-25T08:01:12;4.82;;;3.00;;
31526;SDS011;18136;42.236;-73.040;2023-04-25T08:03:39;4.03;;;3.00;;
31526;SDS011;18136;42.236;-73.040;2023-04-25T08:06:05;2.95;;;2.75;;
31526;SDS011;18136;42.236;-73.040;2023-04-25T08:08:32;3.42;;;2.88;;
31526;SDS011;18136;42.236;-73.040;2023-04-25T08:10:58;2.83;;;2.63;;
31526;SDS011;18136;42.236;-73.040;2023-04-25T08:13:24;3.80;;;2.75;;
31526;SDS011;18136;42.236;-73.040;2023-04-25T08:15:50;2.83;;;2.63;;
31526;SDS011;18136;42.236;-73.040;2023-04-25T08:18:17;2.90;;;2.38;;
31526;SDS011;18136;42.236;-73.040;2023-04-25T08:20:43;4.70;;;3.20;;
31526;SDS011;18136;42.236;-73.040;2023-04-25T08:23:09;6.38;;;3.20;;
31526;SDS011;18136;42.236;-73.040;2023-04-25T08:25:36;3.88;;;3.10;;
31526;SDS011;18136;42.236;-73.040;2023-04-25T08:28:02;3.92;;;3.50;;
31526;SDS011;18136;42.236;-73.040;2023-04-25T08:30:28;4.35;;;3.95;;
31526;SDS011;18136;42.236;-73.040;2023-04-25T08:32:55;5.07;;;4.20;;
31526;SDS011;18136;42.236;-73.040;2023-04-25T08:35:22;4.60;;;4.00;;
31526;SDS011;18136;42.236;-73.040;2023-04-25T08:37:48;4.60;;;4.30;;
31526;SDS011;18136;42.236;-73.040;2023-04-25T08:40:15;4.75;;;4.32;;
31526;SDS011;18136;42.236;-73.040;2023-04-25T08:42:41;4.60;;;4.20;;
31526;SDS011;18136;42.236;-73.040;2023-04-25T08:45:08;4.63;;;4.22;;
31526;SDS011;18136;42.236;-73.040;2023-04-25T08:47:35;5.65;;;4.45;;
31526;SDS011;18136;42.236;-73.040;2023-04-25T08:50:05;5.28;;;4.00;;
31526;SDS011;18136;42.236;-73.040;2023-04-25T08:52:35;5.60;;;5.03;;
31526;SDS011;18136;42.236;-73.040;2023-04-25T08:55:04;5.40;;;4.90;;
31526;SDS011;18136;42.236;-73.040;2023-04-25T08:57:34;4.38;;;3.97;;
31526;SDS011;18136;42.236;-73.040;2023-04-25T09:00:00;5.32;;;4.82;;
31526;SDS011;18136;42.236;-73.040;2023-04-25T09:02:29;4.45;;;4.05;;
31526;SDS011;18136;42.236;-73.040;2023-04-25T09:04:56;5.43;;;4.20;;
31526;SDS011;18136;42.236;-73.040;2023-04-25T09:07:23;8.55;;;5.07;;
31526;SDS011;18136;42.236;-73.040;2023-04-25T09:09:51;4.57;;;4.18;;
31526;SDS011;18136;42.236;-73.040;2023-04-25T09:12:20;4.63;;;4.22;;
31526;SDS011;18136;42.236;-73.040;2023-04-25T09:17:33;5.35;;;4.38;;
31526;SDS011;18136;42.236;-73.040;2023-04-25T09:20:06;4.68;;;4.25;;
31526;SDS011;18136;42.236;-73.040;2023-04-25T09:22:34;6.15;;;5.57;;
31526;SDS011;18136;42.236;-73.040;2023-04-25T09:25:02;7.88;;;6.07;;
31526;SDS011;18136;42.236;-73.040;2023-04-25T09:27:29;5.90;;;5.40;;
31526;SDS011;18136;42.236;-73.040;2023-04-25T09:29:57;7.05;;;6.35;;
31526;SDS011;18136;42.236;-73.040;2023-04-25T09:32:27;6.18;;;5.57;;
31526;SDS011;18136;42.236;-73.040;2023-04-25T09:34:54;6.50;;;5.90;;
31526;SDS011;18136;42.236;-73.040;2023-04-25T09:37:28;6.57;;;5.47;;
31526;SDS011;18136;42.236;-73.040;2023-04-25T09:39:59;7.72;;;6.93;;
31526;SDS011;18136;42.236;-73.040;2023-04-25T09:42:28;6.72;;;6.10;;
31526;SDS011;18136;42.236;-73.040;2023-04-25T09:44:57;6.90;;;6.30;;
31526;SDS011;18136;42.236;-73.040;2023-04-25T09:47:25;7.65;;;6.35;;
31526;SDS011;18136;42.236;-73.040;2023-04-25T09:49:52;6.72;;;6.13;;
31526;SDS011;18136;42.236;-73.040;2023-04-25T09:52:19;8.18;;;6.00;;
31526;SDS011;18136;42.236;-73.040;2023-04-25T09:54:50;6.18;;;5.57;;
31526;SDS011;18136;42.236;-73.040;2023-04-25T09:59:47;7.38;;;6.13;;
31526;SDS011;18136;42.236;-73.040;2023-04-25T10:02:15;7.10;;;6.38;;
31526;SDS011;18136;42.236;-73.040;2023-04-25T10:04:47;6.82;;;6.22;;
31526;SDS011;18136;42.236;-73.040;2023-04-25T10:07:16;6.32;;;5.78;;
31526;SDS011;18136;42.236;-73.040;2023-04-25T10:09:44;6.90;;;6.20;;
31526;SDS011;18136;42.236;-73.040;2023-04-25T10:12:15;6.15;;;5.65;;
31526;SDS011;18136;42.236;-73.040;2023-04-25T10:14:42;5.82;;;5.32;;
31526;SDS011;18136;42.236;-73.040;2023-04-25T10:17:10;6.60;;;6.00;;
31526;SDS011;18136;42.236;-73.040;2023-04-25T10:19:39;6.38;;;5.78;;
31526;SDS011;18136;42.236;-73.040;2023-04-25T10:22:13;6.18;;;5.68;;
31526;SDS011;18136;42.236;-73.040;2023-04-25T10:24:43;6.90;;;6.20;;
31526;SDS011;18136;42.236;-73.040;2023-04-25T10:27:11;7.13;;;6.43;;
31526;SDS011;18136;42.236;-73.040;2023-04-25T10:29:38;7.07;;;6.47;;
31526;SDS011;18136;42.236;-73.040;2023-04-25T10:32:07;7.07;;;6.38;;
31526;SDS011;18136;42.236;-73.040;2023-04-25T10:34:43;6.57;;;5.85;;
31526;SDS011;18136;42.236;-73.040;2023-04-25T10:37:13;6.72;;;6.13;;
31526;SDS011;18136;42.236;-73.040;2023-04-25T10:39:40;8.63;;;5.45;;
31526;SDS011;18136;42.236;-73.040;2023-04-25T10:42:07;6.80;;;6.13;;
31526;SDS011;18136;42.236;-73.040;2023-04-25T10:44:34;6.43;;;5.90;;
31526;SDS011;18136;42.236;-73.040;2023-04-25T10:47:02;6.72;;;6.10;;
31526;SDS011;18136;42.236;-73.040;2023-04-25T10:49:34;6.57;;;5.63;;
31526;SDS011;18136;42.236;-73.040;2023-04-25T10:52:11;8.20;;;6.15;;
31526;SDS011;18136;42.236;-73.040;2023-04-25T10:54:48;8.25;;;5.95;;
31526;SDS011;18136;42.236;-73.040;2023-04-25T10:57:31;5.85;;;5.22;;
31526;SDS011;18136;42.236;-73.040;2023-04-25T11:00:06;7.30;;;5.63;;
31526;SDS011;18136;42.236;-73.040;2023-04-25T11:02:42;7.30;;;6.10;;
31526;SDS011;18136;42.236;-73.040;2023-04-25T11:05:13;7.20;;;6.50;;
31526;SDS011;18136;42.236;-73.040;2023-04-25T11:07:52;7.45;;;6.75;;
31526;SDS011;18136;42.236;-73.040;2023-04-25T11:10:24;9.68;;;6.85;;
31526;SDS011;18136;42.236;-73.040;2023-04-25T11:12:54;6.45;;;5.85;;
31526;SDS011;18136;42.236;-73.040;2023-04-25T11:15:21;7.20;;;6.60;;
31526;SDS011;18136;42.236;-73.040;2023-04-25T11:17:47;7.75;;;6.80;;
31526;SDS011;18136;42.236;-73.040;2023-04-25T11:20:13;6.88;;;6.18;;
31526;SDS011;18136;42.236;-73.040;2023-04-25T11:22:41;8.00;;;6.13;;
31526;SDS011;18136;42.236;-73.040;2023-04-25T11:25:09;8.55;;;6.30;;
31526;SDS011;18136;42.236;-73.040;2023-04-25T11:30:22;6.68;;;5.47;;
31526;SDS011;18136;42.236;-73.040;2023-04-25T11:32:50;6.65;;;5.53;;
31526;SDS011;18136;42.236;-73.040;2023-04-25T11:35:17;5.65;;;4.82;;
31526;SDS011;18136;42.236;-73.040;2023-04-25T11:37:44;6.18;;;4.85;;
31526;SDS011;18136;42.236;-73.040;2023-04-25T11:40:10;7.15;;;5.22;;
31526;SDS011;18136;42.236;-73.040;2023-04-25T11:42:38;4.68;;;4.25;;
31526;SDS011;18136;42.236;-73.040;2023-04-25T11:45:05;5.18;;;4.72;;
31526;SDS011;18136;42.236;-73.040;2023-04-25T11:47:32;5.63;;;4.63;;
31526;SDS011;18136;42.236;-73.040;2023-04-25T11:49:59;4.72;;;4.32;;
31526;SDS011;18136;42.236;-73.040;2023-04-25T11:52:36;4.80;;;4.30;;
31526;SDS011;18136;42.236;-73.040;2023-04-25T11:55:20;5.05;;;4.55;;
31526;SDS011;18136;42.236;-73.040;2023-04-25T11:57:48;5.38;;;4.00;;
31526;SDS011;18136;42.236;-73.040;2023-04-25T12:00:16;4.10;;;3.80;;
31526;SDS011;18136;42.236;-73.040;2023-04-25T12:02:51;4.35;;;3.75;;
31526;SDS011;18136;42.236;-73.040;2023-04-25T12:05:18;3.90;;;3.60;;
31526;SDS011;18136;42.236;-73.040;2023-04-25T12:07:45;3.85;;;3.53;;
31526;SDS011;18136;42.236;-73.040;2023-04-25T12:10:12;4.22;;;3.85;;
31526;SDS011;18136;42.236;-73.040;2023-04-25T12:12:44;4.13;;;3.70;;
31526;SDS011;18136;42.236;-73.040;2023-04-25T12:15:15;3.65;;;3.30;;
31526;SDS011;18136;42.236;-73.040;2023-04-25T12:17:50;4.97;;;3.40;;
31526;SDS011;18136;42.236;-73.040;2023-04-25T12:20:19;3.72;;;3.28;;
31526;SDS011;18136;42.236;-73.040;2023-04-25T12:22:49;4.05;;;3.65;;
31526;SDS011;18136;42.236;-73.040;2023-04-25T12:25:36;3.60;;;3.25;;
31526;SDS011;18136;42.236;-73.040;2023-04-25T12:30:58;3.50;;;3.20;;
31526;SDS011;18136;42.236;-73.040;2023-04-25T12:33:26;3.85;;;3.28;;
31526;SDS011;18136;42.236;-73.040;2023-04-25T12:35:54;3.35;;;3.05;;
31526;SDS011;18136;42.236;-73.040;2023-04-25T12:38:21;3.15;;;2.85;;
31526;SDS011;18136;42.236;-73.040;2023-04-25T12:40:48;3.10;;;2.80;;
31526;SDS011;18136;42.236;-73.040;2023-04-25T12:43:14;4.05;;;2.90;;
31526;SDS011;18136;42.236;-73.040;2023-04-25T12:45:40;4.28;;;3.22;;
31526;SDS011;18136;42.236;-73.040;2023-04-25T12:48:06;3.08;;;2.78;;
31526;SDS011;18136;42.236;-73.040;2023-04-25T12:50:32;3.33;;;2.75;;
31526;SDS011;18136;42.236;-73.040;2023-04-25T12:52:58;3.42;;;2.95;;
31526;SDS011;18136;42.236;-73.040;2023-04-25T12:55:25;3.00;;;2.78;;
31526;SDS011;18136;42.236;-73.040;2023-04-25T12:57:51;3.00;;;2.70;;
31526;SDS011;18136;42.236;-73.040;2023-04-25T13:00:17;2.75;;;2.55;;
31526;SDS011;18136;42.236;-73.040;2023-04-25T13:02:45;3.10;;;2.85;;
31526;SDS011;18136;42.236;-73.040;2023-04-25T13:05:14;3.45;;;2.72;;
31526;SDS011;18136;42.236;-73.040;2023-04-25T13:07:40;2.85;;;2.60;;
31526;SDS011;18136;42.236;-73.040;2023-04-25T13:10:06;2.65;;;2.25;;
31526;SDS011;18136;42.236;-73.040;2023-04-25T13:12:33;3.50;;;2.17;;
31526;SDS011;18136;42.236;-73.040;2023-04-25T13:14:59;2.83;;;2.20;;
31526;SDS011;18136;42.236;-73.040;2023-04-25T13:17:25;2.85;;;2.65;;
31526;SDS011;18136;42.236;-73.040;2023-04-25T13:19:51;2.60;;;2.40;;
31526;SDS011;18136;42.236;-73.040;2023-04-25T13:22:17;2.60;;;2.10;;
31526;SDS011;18136;42.236;-73.040;2023-04-25T13:24:45;2.70;;;2.50;;
31526;SDS011;18136;42.236;-73.040;2023-04-25T13:27:12;2.30;;;2.10;;
31526;SDS011;18136;42.236;-73.040;2023-04-25T13:29:38;2.20;;;2.00;;
31526;SDS011;18136;42.236;-73.040;2023-04-25T13:32:06;2.58;;;2.10;;
31526;SDS011;18136;42.236;-73.040;2023-04-25T13:34:32;2.58;;;2.30;;
31526;SDS011;18136;42.236;-73.040;2023-04-25T13:36:58;1.92;;;1.83;;
31526;SDS011;18136;42.236;-73.040;2023-04-25T13:39:25;3.47;;;1.85;;
31526;SDS011;18136;42.236;-73.040;2023-04-25T13:41:51;2.88;;;2.08;;
31526;SDS011;18136;42.236;-73.040;2023-04-25T13:44:17;1.65;;;1.55;;
31526;SDS011;18136;42.236;-73.040;2023-04-25T13:46:43;2.45;;;2.25;;
31526;SDS011;18136;42.236;-73.040;2023-04-25T13:49:10;1.75;;;1.65;;
31526;SDS011;18136;42.236;-73.040;2023-04-25T13:51:36;1.63;;;1.52;;
31526;SDS011;18136;42.236;-73.040;2023-04-25T13:54:02;1.83;;;1.73;;
31526;SDS011;18136;42.236;-73.040;2023-04-25T13:56:28;1.63;;;1.52;;
31526;SDS011;18136;42.236;-73.040;2023-04-25T13:58:54;1.80;;;1.70;;
31526;SDS011;18136;42.236;-73.040;2023-04-25T14:01:21;1.95;;;1.67;;
31526;SDS011;18136;42.236;-73.040;2023-04-25T14:03:47;1.92;;;1.80;;
31526;SDS011;18136;42.236;-73.040;2023-04-25T14:06:14;1.95;;;1.60;;
31526;SDS011;18136;42.236;-73.040;2023-04-25T14:08:46;1.85;;;1.60;;
31526;SDS011;18136;42.236;-73.040;2023-04-25T14:11:12;2.00;;;1.80;;
31526;SDS011;18136;42.236;-73.040;2023-04-25T14:13:38;1.80;;;1.70;;
31526;SDS011;18136;42.236;-73.040;2023-04-25T14:16:04;1.80;;;1.70;;
31526;SDS011;18136;42.236;-73.040;2023-04-25T14:18:30;3.70;;;1.50;;
31526;SDS011;18136;42.236;-73.040;2023-04-25T14:20:57;2.08;;;1.60;;
31526;SDS011;18136;42.236;-73.040;2023-04-25T14:23:23;1.48;;;1.38;;
31526;SDS011;18136;42.236;-73.040;2023-04-25T14:25:49;1.58;;;1.48;;
31526;SDS011;18136;42.236;-73.040;2023-04-25T14:28:15;3.17;;;1.38;;
31526;SDS011;18136;42.236;-73.040;2023-04-25T14:30:41;1.33;;;1.20;;
31526;SDS011;18136;42.236;-73.040;2023-04-25T14:33:07;1.70;;;1.60;;
31526;SDS011;18136;42.236;-73.040;2023-04-25T14:35:34;1.65;;;1.40;;
31526;SDS011;18136;42.236;-73.040;2023-04-25T14:38:00;1.42;;;1.33;;